La Junta, Colorado
Current Conditions -  °F | °C
As of 2:11 AM on Thursday 18 Dec 2014 (Local Time) from KLHX Reporting Station
Scattered Clouds Scattered Clouds  
Wind Chill: 22°   Ceiling: Unl
Heat Index: 27°   Visibility: 10mi
Dew Point: 24°   Wind: 5mph
Humidity: 89%   Direction: 200°SSW
Pressure: 30.03"   Gusts: NA
Location:  37.99°N, 103.54°W
Report Text: KLHX 180911Z AUTO 20004KT 10SM SCT008 SCT045 M03/M04 A3003 RMK AO2 T10281044
Loading
Personal Weather Stations






























Interactive Weather Map New forecast layout! Learn more

10-Day Weather Forecast

Advertisements
Track Severe Weather on mobile